Flight Track Log - Related Links

Times and Time Zones

All times are in EDT time to prevent confusion due to time zone crossing. See the FFT182 flight status page for this flight to view local times or setup timezone preferences in your user account.

Time Position Orientation Groundspeed Altitude Reporting Facility
EDT Latitude Longitude Course Direction KTS MPH feet Rate Location/Type
Tue 04:14:52 PM 40.8033 -111.9633 360° North 143 165 5,100  Level Salt Lake Center
Tue 04:15:16 PM 40.8203 -111.9633 360° North 140 161 5,500 1,553 Climbing Salt Lake Center
Tue 04:16:17 PM 40.8794 -111.9733 353° North 218 251 7,300 2,361 Climbing Salt Lake Center
Tue 04:17:18 PM 40.9539 -111.9722 North 273 314 10,300 2,634 Climbing Salt Lake Center
Tue 04:18:20 PM 40.9664 -111.8828 79° East 287 330 12,700 2,439 Climbing Salt Lake Center
Tue 04:19:21 PM 40.9494 -111.7700 101° East 327 376 15,300 2,705 Climbing Salt Lake Center
Tue 04:20:22 PM 40.9300 -111.6519 102° East 334 384 18,200 2,780 Climbing Salt Lake Center
Tue 04:21:24 PM 40.9167 -111.4992 97° East 355 409 21,000 2,537 Climbing Salt Lake Center
Tue 04:22:25 PM 40.9061 -111.3656 96° East 365 420 23,400 2,341 Climbing Salt Lake Center
Tue 04:23:27 PM 40.8903 -111.2306 99° East 373 429 25,800 2,146 Climbing Salt Lake Center
Tue 04:24:28 PM 40.8731 -111.0925 99° East 379 436 27,800 1,820 Climbing Salt Lake Center
Tue 04:25:29 PM 40.8561 -110.9503 99° East 388 447 29,500 2,049 Climbing Salt Lake Center
Tue 04:26:31 PM 40.8383 -110.8072 99° East 395 455 32,000 1,902 Climbing Salt Lake Center
Tue 04:27:32 PM 40.8211 -110.6694 99° East 385 443 33,400 976 Climbing Salt Lake Center
Tue 04:28:34 PM 40.8031 -110.5167 99° East 400 460 34,000 829 Climbing Salt Lake Center
Tue 04:29:35 PM 40.7814 -110.3447 99° East 423 487 35,100 976 Climbing Salt Lake Center
Tue 04:30:37 PM 40.7614 -110.1908 100° East 434 499 36,000 976 Climbing Salt Lake Center
Tue 04:31:38 PM 40.7417 -110.0392 100° East 438 504 37,100 934 Climbing Salt Lake Center
Tue 04:32:39 PM 40.7297 -109.8583 95° East 443 510 37,900 683 Climbing Salt Lake Center
Tue 04:33:41 PM 40.7192 -109.7031 95° East 445 512 38,500 537 Climbing Salt Lake Center
Tue 04:34:42 PM 40.7050 -109.5181 96° East 454 522 39,000 244 Climbing Salt Lake Center
Tue 04:35:44 PM 40.6931 -109.3592 96° East 454 522 39,000  Level Salt Lake Center
Tue 04:36:45 PM 40.6794 -109.1825 96° East 458 527 39,000  Level Salt Lake Center
Tue 04:37:47 PM 40.6681 -109.0258 95° East 453 521 39,000  Level Salt Lake Center
Tue 04:38:48 PM 40.6531 -108.8439 96° East 451 519 39,000  Level Salt Lake Center
Tue 04:39:25 PM 40.6453 -108.7494 96° East 452 520 39,000  Level Denver Center
Tue 04:40:53 PM 40.6253 -108.5050 96° East 451 519 39,000  Level Salt Lake Center
Tue 04:41:28 PM 40.6178 -108.4067 96° East 454 522 39,000  Level Denver Center
Tue 04:41:53 PM 40.6122 -108.3469 97° East 455 524 39,000  Level Salt Lake Center
Tue 04:42:54 PM 40.5983 -108.1881 97° East 456 525 39,000  Level Salt Lake Center
Tue 04:43:31 PM 40.5881 -108.0628 96° East 458 527 39,000  Level Denver Center
Tue 04:44:33 PM 40.5742 -107.9028 96° East 459 528 39,000  Level Denver Center
Tue 04:45:35 PM 40.5619 -107.7428 96° East 459 528 39,000  Level Denver Center
Tue 04:46:36 PM 40.5469 -107.5567 96° East 459 528 39,000  Level Denver Center
Tue 04:47:38 PM 40.5339 -107.3953 96° East 461 531 39,000  Level Denver Center
Tue 04:49:04 PM 40.5161 -107.1889 96° East 464 534 39,000 -41 Level Denver Center
Tue 04:50:06 PM 40.4997 -106.9850 96° East 466 536 38,900 -339 Descending Denver Center
Tue 04:51:08 PM 40.4850 -106.8164 96° East 464 534 38,300 -732 Descending Denver Center
Tue 04:52:09 PM 40.4700 -106.6464 97° East 465 535 37,400 -1,512 Descending Denver Center
Tue 04:53:11 PM 40.4519 -106.4536 97° East 464 534 35,200 -2,468 Descending Denver Center
Tue 04:54:13 PM 40.4394 -106.2975 96° East 452 520 32,300 -2,683 Descending Denver Center
Tue 04:55:14 PM 40.4214 -106.1192 98° East 449 517 29,700 -2,195 Descending Denver Center
Tue 04:56:16 PM 40.3883 -105.9631 105° East 437 503 27,800 -2,081 Descending Denver Center
Tue 04:57:18 PM 40.3519 -105.8119 107° East 428 493 25,400 -2,293 Descending Denver Center
Tue 04:58:19 PM 40.3139 -105.6661 109° East 420 483 23,100 -2,244 Descending Denver Center
Tue 04:59:21 PM 40.2672 -105.5319 114° Southeast 400 460 20,800 -2,371 Descending Denver Center
Tue 05:00:23 PM 40.2067 -105.3903 119° Southeast 398 458 18,200 -2,081 Descending Denver Center
Tue 05:01:25 PM 40.1708 -105.2978 117° Southeast 375 432 16,500 -1,935 Descending Denver Center
Tue 05:02:27 PM 40.1131 -105.1553 118° Southeast 358 412 14,200 -1,707 Descending Denver Center
Tue 05:03:28 PM 40.0628 -105.0342 118° Southeast 352 405 13,000 -585 Descending Denver Center
Tue 05:04:30 PM 40.0217 -104.9336 118° Southeast 319 367 13,000 -484 Level Denver Center
Tue 05:05:32 PM 39.9783 -104.8281 118° Southeast 309 356 12,000 -968 Descending Denver Center
Tue 05:06:34 PM 39.9017 -104.8019 165° South 286 329 11,000 -488 Descending Denver Center
Tue 05:07:35 PM 39.8344 -104.8117 186° South 238 274 11,000 -98 Level Denver Center
Tue 05:08:37 PM 39.7675 -104.8264 190° South 229 264 10,800 -726 Descending Denver Center
Tue 05:09:39 PM 39.7061 -104.8186 174° South 228 262 9,500 -1,065 Descending Denver Center
Tue 05:10:41 PM 39.6508 -104.7711 147° Southeast 224 258 8,600 -726 Descending Denver Center
Tue 05:11:43 PM 39.6642 -104.7003 76° East 214 246 8,000 -634 Descending Denver Center
Tue 05:12:44 PM 39.7181 -104.6631 28° Northeast 204 235 7,300 -732 Descending Denver Center
Tue 05:13:46 PM 39.7714 -104.6614 North 192 221 6,500 -774 Descending Denver Center
Tue 05:14:48 PM 39.8181 -104.6608 North 152 175 5,700 -774 Descending Denver Center

Login

Don't have an account? Register now (free) for customized features, flight alerts, and more!